Airfield :
LOGIN :

Register | Disclaimer

   EN    FR    IT 

 










Legend :    VFR   Marginal VFR   IFR   Intensive IFR   Very Intensive IFR
Visi :
Ceiling :
>= 8 km
>= 3000ft
5 to 8 km
1000 to 3000 ft
1500m to 5 km
500 to 1000 ft
800 to 1500m
200 to 500 ft
< 800m
< 200 ft
Symbols :   Thunderstorms  Fog  Heavy snow  Heavy precipitations  Wind > 20 kt
SIGMETs :     Misc.  Thunderstorms  Icing  Turbulence  Mountain Waves  Volcanic Ashes






- Airport Elevation : 1300 ft
- IATA code : LIG


LFBL - Limoges

CURRENT METAR :
  • 200300Z AUTO 35004KT 290V040 9999 BKN011 BKN020 OVC026 08/07 Q1020 TEMPO 4000 -RA BKN005

EXPIRED METARs :
  • 200230Z AUTO 36004KT 330V030 9999 BKN010 BKN023 OVC028 08/07 Q1020 TEMPO 4000 -RA
  • 200200Z AUTO 35005KT 310V030 9999 BKN012 BKN017 OVC022 08/06 Q1020 TEMPO 4000 -RA BKN005 OVC015
  • 200130Z AUTO 35005KT 330V030 9999 BKN012 BKN018 OVC026 08/06 Q1020 TEMPO 4000 -RA BKN005 OVC015
  • 200100Z AUTO 35004KT 310V030 9999 BKN015 OVC020 08/06 Q1020 TEMPO 4000 -RA BKN005 OVC015
  • 200030Z AUTO 36005KT 330V030 9999 FEW018 BKN034 08/06 Q1020 TEMPO 4000 -RA BKN005 OVC015
  • 200000Z AUTO 01003KT 330V030 9999 FEW025 BKN031 08/06 Q1020 TEMPO 4000 -RA BKN005 OVC015
  • 192330Z AUTO 01005KT CAVOK 08/06 Q1020 NOSIG
  • 192300Z AUTO 01005KT 340V040 CAVOK 08/06 Q1020 NOSIG
  • 192230Z AUTO 36007KT 320V040 CAVOK 09/06 Q1020 NOSIG

TAF AMD TAF LFBL
Valid from the 20 at 02:00 until the 21 at 00:00 UTC


200241Z 2002/2024 36005KT 9999 BKN011
PROB30
TEMPO 2002/2006 4000 -RA BKN005
BECMG 2006/2008 06010KT CAVOK
ATIS : +33 5 55 48 40 37



MET'MAP, your aeronautical weather chart ! - Copyright ORBIFLY December 2007 - Disclaimer

ORBIFLY MET'MAP TEAM :

Programming & Development : Alexandra Zaïnal
Original concept : Baudouin d'Aumeries
Technical & hardware support : Manuel Goepfert
Assistance : Marc-Olivier Méhu




SOURCES & CREDITS :

   NOAA